Allensville, PA (17002)

12:26 PM EST on February 08, 2016 (GMT -0500)
big valley | | Change Station
CLOSE
Current Station
Personal Weather Station
Location: Belleville, PA
Elevation: 873 ft
Nearby Weather Stations

Elev 873 ft 40.62 °N, 77.71 °W | Updated 15 minutes ago

Clear
Clear
42.4 °F
Feels Like 42 °F
N
0.0
Wind Variable Wind from South

Today
High -- | Low -- °F
--% Chance of Precip.
Yesterday
High -- | Low -- °F
Precip. -- in
Pressure 29.68 in
Visibility 10.0 miles
Clouds Scattered Clouds 11000 ft
Windchill 42 °F
Dew Point 27 °F
Humidity 54%
Rainfall 0.00 in
Snow Depth Not available.
7:13 AM 5:36 PM
New Moon, 0% visible
METAR KUNV 081653Z COR 12008KT 10SM SCT110 04/M07 A2968
Pressure 29.68 in
Visibility 10.0 miles
Clouds Scattered Clouds 11000 ft
Windchill 42 °F
Dew Point 27 °F
Humidity 54%
Rainfall 0.00 in
Snow Depth Not available.
7:13 AM 5:36 PM
New Moon, 0% visible
METAR KUNV 081653Z COR 12008KT 10SM SCT110 04/M07 A2968

10-Day Weather Forecast

Almanac

Astronomy

Feb. 08, 2016 Rise Set
Actual Time
Civil Twilight
Nautical Twilight
Astronomical Twilight
Moon
Length of Visible Light
Length of Day
Tomorrow will be .
, % of the Moon is Illuminated

Today's Extremes

State Highs State Lows

Community

WunderPhotos

Upload Photos

1,891,471 photos uploaded!

WunderBlog® & News

Nearby

Air Quality

  Air Quality AQ Index Pollutant
Not available.

Snow Depth

Station Depth Elevation

Earthquake Activity

City Distance Mag. Time & Date
Minimum magnitude displayed is 2.5.

Coastal Water Temperatures

Place Temperature

Stations

Nearby Weather Stations

Station Location Temp. Windchill Dew Point Humidity Wind Precip. Elev Updated Type
                   

Watches & Warnings

There are currently no watches in effect.